Timeline UpdatesTrip UpdatesNews PostsPvt Posts♥♥Travel TipsAdmin PostsConv PostsFollowed PostsChat RequestsBlog PostsPNR Posts

Disclaimer
Search
 
 
Sat Nov 1, 2014 13:55:38 ISTHomeTrainsΣChainsAtlasPNRForumGalleryNewsFAQTripsMembersLoginFeedback
No Recent News for this Train
Other Trains in the News **new
Latest...
.
Sat Feb 22, 2014 (10:28PM)
⇐ Return Journey: Train# 58111

58112/Itwari-Tatanagar Jn Passenger

Time-Table HAS CHANGED.
Sep 03 2014 (1:12PM)
Change Departure Station:
Change Arrival Station:
Post a Train Travel TipPost a Train Travel Tip **new
Post a Comment/Question/Picture/VideoPost a Comment/Question/Picture/Video
Pantry/Catering
✕ NO Pantry Car
✕ NO Catering
RSA - Rake Sharing
Rake/Coach Composition
ENG:SLR-1 UR-3 SL-4 UR-3 VP-1 SLR-1; Entry# 189608 ; Author: sunilsagitarius
Loco
WAM-4 TATA Shed; Entry# 545455
News    PNR    Forum    Time-Table    Availability    Fare Chart    Map    Arr/Dep History    Trips    Gallery    ΣChains    X/O    Timeline    
Travel Time: 10h 45m    36 halts    Distance: 273 km    Avg Speed: 25 km/hr
Type: Passenger
Zone: SER/South Eastern
Departs @ 13:20 (Avg 1h 4m late)
Platform# ???
SMTWTFS
Ib/IB 
Arrives @ 00:05 +1 night (Avg 3m late)
Platform# 4
SMTWTFS
Tatanagar Junction/TATA 

36 halts. 38 intermediate Stations between Ib and Tatanagar Junction

Show ALL intermediate Stations  Show Old Time-Table

#TrkCodeStation NameX/OArrivesAvgDepartsAvgHaltPFDay#KmSpeedElevZoneAddress
1/==/ITRItwari (3)  -21:30+9--1-604.121306mSECRNagpur, Maharashtra
2/==/KAVKalamna (3)  21:38+1321:40+162m--1-601.251296mSECRNagpur, Maharashtra
3/==/KPKamptee (3)X  21:50 21:49+1921:52 21:51+202m--1-593.626290mSECRKamptee, Maharashtra
4/==/KNHNKanhan Junction (3)  22:02+1822:04+182m--1-588.986288mSECRKanhan, Maharashtra
5/==/SALSalwa (2)X  22:08+2222:10+232m--1-583.166289mSECRNagpur, Maharashtra
6/==/CHCRChacher (3)O  22:16+2422:18+252m--1-576.563284mSECRNagpur, Maharashtra
7/==/TARTharsa (3)  22:24+2522:26+252m--1-570.268292mSECRNagpur, Maharashtra
8/==/RRLRewral (2)X  22:31+2722:33+262m--1-564.677293mSECRNagpur Distt, Maharashtra
9/==/KHATKhat (2)  22:40+2822:42+282m--1-555.654286mSECRNagpur, Maharashtra
10/==/BRDBhandara Road (3)X  22:53+1422:55+162m--1-545.654266mSECRState Highway 252 Bhandara District, Maharashtra
11/==/TMRTumsar Road (5)O  23:15+2323:20+215m--1-527.788267mSECRDistt. Bhandara, Maharashtra
12/==/MNUMundikota (2)X  23:27+2723:29+282m--1-517.467269mSECRBhandara, Maharashtra
13/==/TROTirora (3)  23:38+2723:40+292m--1-507.368282mSECRDist Gondia, Maharashtra
14/==/KWNKachewani (3)  23:46+3323:48+332m--1-500.572303mSECRKachewani Gondia District, Maharashtra
15/==/GJGangajhari (3)  23:55+3523:57+352m--1-492.237315mSECRGondia District, Maharashtra
16/==/GGondia Junction (7)  00:25 00:20+1100:35 00:30+1410m32-478.1102316mSECRGondia 441601, Maharashtra
17/==/GDMGudma (2)  00:43 00:37+3900:45 00:39+392m--2-466.173323mSECRGondia, Maharashtra
18/==/AGNAmgaon (2)  00:54 00:48+3800:56 00:50+382m--2-455.288317mSECRGondia, Maharashtra
19/==/SKSSalekasa (2)X  01:07 01:00+4101:09 01:02+422m--2-440.553312mSECRRajnandgaon, Chhattisgarh
20/==/DKSDarekasa (2)  01:22 01:15+4401:24 01:17+462m--2-429.066381mSECRRajnandgaon, Chhattisgarh
21/==/BTLBortalao (2)X  01:31 01:24+4501:33 01:26+472m--2-421.353409mSECRRajnandgaon, Chhattisgarh
22/==/PJBPaniajob (2)X  01:43 01:36+4701:45 01:38+472m--2-412.527363mSECRRajnandgaon, Chhattisgarh
23/==/DGGDongargarh (2)  02:00 01:55+3402:10 02:05+3510m--2-404.8130 SECRDongargarh, Chhattisgarh
24/==/JTRJatkanhar  02:14 02:08+4402:16 02:10+432m--2-398.267330mSECRRajnandgaon, Chhattisgarh
25/==/MUAMusra  02:22 02:16+4302:24 02:18+432m--2-391.665323mSECRRajnandgaon, Chhattisgarh
26/==/RJNRaj Nandgaon (3)  02:40 02:35+3502:45 02:40+355m--2-373.2100313mSECRRajnandgaon, Chhattisgarh
27/==/MUPMurhipar  02:54 02:49+4102:56 02:51+412m--2-358.317319mSECRRajnandgaon, Chhattisgarh
28/==/DURGDurg Junction (6)X  03:55 03:45+1204:00 03:50+125m--2-342.854299mSECRPh: 91-788-2322059, Chhattisgarh
29/==/BQRBhilai Nagar (2)X  04:06 03:55+1804:07 03:57+181 2m--2-338.366298mSECRBhilai, Chhattisgarh
30/==/BPHBBhilai Power House (3)  04:11 04:01+004:13 04:03+02m--2-333.856312mSECRBhilai, Chhattisgarh
31/==/BIABhilai (2)  04:18 04:08+2304:20 04:10+222m--2-329.252309mSECRBhilai, Chhattisgarh
32/==/DBECDevbaloda Charoda  04:24 04:14-04:26 04:16-2m--2-325.722310mSECRBhilai, Chhattisgarh
33/==/KMIKumhari (2)XO  04:46 04:36+1404:48 04:38+152m--2-318.220287mSECRKumhari, Chhattisgarh
34/==/RRaipur Junction (6)XO  05:15+705:35+920m--2-305.852297mSECRRaipur, Chhattisgarh
35/==/WRCWRS Colony PH  05:38-05:40-2m--2-303.236286mSECRRaipur, Chhattisgarh
36/==/URKUrkura  05:46 05:45+1405:48 05:47+142m--2-300.286275mSECRRaipur, Chhattisgarh
37/==/MDHMandharX  05:55 05:53+1705:56 05:55+171 2m--2-291.772281mSECRDonde Kalan, Chhattisgarh
38/==/SLHSiliariX  06:05 06:03+2206:06 06:05+221 2m--2-282.163280mSECRBanjari Rd, Chhattisgarh
39/==/BKTHBaikunthX  06:15 06:13+3406:17 06:15+332m--2-273.846287mSECRBanjari Rd, Chhattisgarh
40/==/TLDTilda (3)X  06:25 06:23+2206:27 06:25+212m--2-267.680 SECRBanjari Rd, Chhattisgarh
41/==/HNHathbandhX  06:35 06:33+2306:37 06:35+242m--2-256.984283mSECRRaipur, Chhattisgarh
42/==/BYTBhatapara (4)X  06:48 06:46+2706:50 06:48+272m--2-241.668270mSECRBanjari Road, Chhattisgarh
43/==/NPINipania  07:05 07:01+2807:06 07:03+291 2m--2-226.870259mSECRNational Highway 200, Chhattisgarh
44/==/DGSDagoriX  07:15 07:10+3007:16 07:12+311 2m--2-218.692254mSECRCollege Road, Chhattisgarh
45/==/BYLBelha  07:21 07:17+3307:23 07:19+332m--2-210.958269mSECRCollege Road, Chhattisgarh
46/==/CHBTChakarbhathaX  07:28 07:25-07:30 07:26-2 1m--2-205.137285mSECRBilaspur, Chhattisgarh
47/==/DPHDadhapara (3)XO  07:35 07:31+4207:37 07:32+412 1m--2-202.18272mSECRBilaspur, Chhattisgarh
48/==/BSPBilaspur Junction (8)X  08:25+1008:40+1415m22-195.449271mSECRBilaspur, Chhattisgarh
49/==/GTWGatoraX  08:48+1808:50+182m--2-188.957268mSECRBilaspur, Chhattisgarh
50/==/JRMGJairamnagarX  08:58+2009:00+212m--2-181.367272mSECRNational Highway 200, Chhattisgarh
51/==/KTSHKotmi Sonar HaltX  09:06-09:08-2m--2-174.664266mSECRKotmisunar, Chhattisgarh
52/==/AKTAkaltara (4)X  09:14+2209:16+232m--2-168.258284mSECRDist. Janjgir Champa, Chhattisgarh
53/==/KPNAKapan (1)O  09:23 09:24-09:25 09:26-2m12-160.554263mSECRNational Highway 200, Chhattisgarh
54/==/NIANailaX  09:34+2309:36+222m--2-153.234273mSECRJanjgir, Chhattisgarh
55/==/CPHChampa Junction (3)X  09:55+2610:00+295m--2-142.477264mSECRNational Highway 200 (07819-245767), Chhattisgarh
56/==/SGRDSaragaon Road  10:07-10:08-1m--2-133.478254mSECRNational Highway 200, Chhattisgarh
57/==/BUABaradwarX  10:12 10:13+2910:14 10:15+282m--2-126.961 SECRJanjgir-Champa, Chhattisgarh
58/==/JDDAJetha  10:21 10:22-10:22 10:23-1m--2-119.793244mSECRNational Highway 200, Chhattisgarh
59/==/SKTSakti (4)  10:28+3010:30+322m--2-112.056237mSECRJanjgir-Champa, Chhattisgarh
60/==/JDIJharradih  10:41+3410:43+392m--2-101.863247mSECRRaigarh, Chhattisgarh
61/==/KHSKharsia  10:48+3910:50+412m--2-96.673 SECRNational Highway 200, Chhattisgarh
62/==/ROBRobertson  10:57+4810:59+492m--2-88.177239mSECRRaigarh, Chhattisgarh
63/==/BEFBhupdeopur  11:07 11:06+4411:09 11:08+482m--2-79.179243mSECRRaigarh, Chhattisgarh
64/==/KDTRKirodimalnagar (5)O  11:16 11:15+5111:18 11:17+532m--2-69.824240mSECRRaigarh, Chhattisgarh
65/==/RIGRaigarh (3)O  11:35+3911:40+445m--2-62.697220mSECRRaigarh, Chhattisgarh
66/==/KRLKotarliaO  11:46+1:0511:48+1:052m--2-52.973229mSECRRaigarh, Chhattisgarh
67/==/JMGJamga  11:55+1:0711:57+1:192m--2-44.472233mSECRJamga Station, Chhattisgarh
68/==/DAODaghoraX  12:08 12:07+1:1512:10 12:09+1:142m--2-32.434269mSECRRaigarh, Chhattisgarh
69/==/HGRHimgir  12:23 12:22+1:1412:25 12:24+1:172m--2-25.081275mSECRNational Highway 200, Chhattisgarh
70/==/BPHBelpahar (2)  12:35 12:34+1:1412:37 12:36+1:152m--2-11.633235mSECRBelpahar, Odisha
71/==/BRJNBrajrajnagarXO  12:58 12:52+1:1513:00 12:54+1:172m--2-2.77212mSECRBrajrajnagar, Odisha
72/==/IBIb»XO  13:28 13:18+5913:30 13:20+1:042m--20.07207mSECRJharsuguda, Odisha
73/==/JSGJharsuguda Junction (5)X  14:35+914:55+2020m--29.057236mSERJharsuguda, Odisha
74/==/DTVDhutra  15:04+3315:05+341m--217.647240mSERJharsuguda, Odisha
75/==/PNPLPanpaliX  15:12-15:13-1m--223.156258mSERJharsuguda, Odisha
76/==/BEHBagdihi (3)O  15:20+3215:21+331m--229.654257mSERState Highway 24 PH: 06640-286227, Odisha
77/==/DIHDharuadihi  15:28+3315:29+371m--235.964258mSERSH 24, Odisha
78/==/BMBBamra (3)  15:38+3815:39+441m--245.556259mSERBamra PH : 06642-229268, Odisha
79/==/TGMTangarmundaX  15:48+4715:49+471m--254.058264mSERSundargarh, Odisha
80/==/GPHGarpos (3)  15:57+4915:58+511m--261.747281mSERSundargarh, Odisha
81/==/SOGRSograO  16:04+5116:05+531m--266.455293mSERState Highway 10, Odisha
82/==/SXNSonakhan  16:12+5516:13+581m--272.955249mSERSundargarh, Odisha
83/==/GPRaj Gangpur (3)  16:21+5816:22+1:021m--280.155237mSERRaj Ganpur, Odisha
84/==/KXNKanshbahal  16:32+1:0316:33+1:041m--289.453217mSERSundargarh, Odisha
85/==/KLGKalunga  16:41+1:0416:42+1:051m--296.450203mSERSundargarh, Odisha
86/==/PPOPanposh (2)X  16:51+1:0216:52+1:031m--2103.98190mSERRourkela, Odisha
87/==/ROURourkela Junction (5)  17:40+1818:40+2360m42110.060198mSERRourkela, Odisha
88/==/KCABBondamunda K Cabin new halt!!  18:46+5818:47+581m--2115.96214mSERRourkela, Odisha
89/==/BNDMBondamunda (2)  18:53+4918:54+481m--2116.541213mSERRourkela, Odisha
90/==/BZRBisra  19:05+4619:06+471m--2124.158224mSERSundargarh, Odisha
91/==/BULBhalulata  19:13+4819:14+491m--2130.950239mSERRourkela, Jharkhand
92/==/JRAJaraikelaX  19:23+4719:24+481m--2138.468215mSERJaraikela Station, Jharkhand
93/==/MOUManoharpurX  19:34+5119:35+571m--2149.831228mSERManoharpur, Jharkhand
94/==/PSTPosotia (4)X  19:52 19:56+5119:53 19:57+521m--2160.751279mSERPosotia Station, Jharkhand
95/==/DRWNDerowan P. HaltX  20:01 20:05-20:02 20:06-1m--2167.628275mSERDerowan, Jharkhand
96/==/MXWMahadevsal new halt!!  20:15+5220:16+541m--2171.854321mSERMahadevsal, Jharkhand
97/==/GOLGoilkera (2)  20:18 20:22+5520:19 20:23+561m--2177.251333mSERGoilkera, Jharkhand
98/==/TUXTunia  20:27 20:31+5820:28 20:32+591m--2184.045297mSERTunia Station, Jharkhand
99/==/SWRSonua  20:36 20:40+5220:37 20:41+531m--2190.069287mSERSonua, Jharkhand
100/==/LPHLotapaharX  20:47 20:51+5420:48 20:52+1:001m--2201.525251mSERLotapahar Station, Jharkhand
101/==/CKPChakradharpur (3)  21:10 21:15+4321:50+3240 35m--2211.064235mSERChakradharpur (West Singhbhum), Jharkhand
102/==/BRMBarabamboX  22:00+3922:01+471m--2221.756213mSERBarabambo Station, Jharkhand
103/==/RKSNRajkharsawan Junction (3)  22:11+3622:12+371m--2231.150189mSERSaraikela Kharswan District, Jharkhand
104/==/MMVMahali Marup (2)X  22:21+3722:22+381m--2238.651183mSERMahali Marup Station, Jharkhand
105/==/SINISini Junction (3)  22:31+3922:32+391m22246.348182mSERNational Highway 33, Jharkhand
106/==/BRBSBirbans  22:41-22:42-1m--2253.654171mSERBirbans, Jharkhand
107/==/GMHGamharia (3)  22:52+4022:53+1:071m22262.640165mSERJamshedpur, Jharkhand
108/==/ADTPAdityapur (3)  23:02+023:03+01m22268.64152mSERJamshedpur, Jharkhand
109/==/TATATatanagar Junction (5)•  00:05+3-43273.3-164mSER91-657-2423026, Jharkhand
Scroll to Top
Scroll to Bottom